createdAt,value
2018-06-05T00:02:25.499Z,22.53
2018-06-05T00:04:55.303Z,22.52
2018-06-05T00:07:25.127Z,22.53
2018-06-05T00:09:54.960Z,22.54
2018-06-05T00:12:24.832Z,22.52
2018-06-05T00:14:54.640Z,22.43
2018-06-05T00:17:24.473Z,22.39
2018-06-05T00:19:54.299Z,22.37
2018-06-05T00:22:24.084Z,22.35
2018-06-05T00:24:53.945Z,22.29
2018-06-05T00:27:23.815Z,22.25
2018-06-05T00:29:53.597Z,22.16
2018-06-05T00:32:23.447Z,22.15
2018-06-05T00:34:53.248Z,22.14
2018-06-05T00:37:23.079Z,22.04
2018-06-05T00:39:52.889Z,22.08
2018-06-05T00:42:22.709Z,21.98
2018-06-05T00:44:52.599Z,21.97
2018-06-05T00:47:22.477Z,21.81
2018-06-05T00:49:52.433Z,21.79
2018-06-05T00:52:22.280Z,21.76
2018-06-05T00:54:52.131Z,21.82
2018-06-05T00:57:21.982Z,21.81
2018-06-05T00:59:51.840Z,21.80
2018-06-05T01:02:21.703Z,21.83
2018-06-05T01:04:51.520Z,21.83
2018-06-05T01:07:21.328Z,21.85
2018-06-05T01:09:51.101Z,21.86
2018-06-05T01:12:20.951Z,21.84
2018-06-05T01:14:50.736Z,21.81
2018-06-05T01:17:20.596Z,21.56
2018-06-05T01:19:50.411Z,21.41
2018-06-05T01:22:20.234Z,21.45
2018-06-05T01:24:50.048Z,21.40
2018-06-05T01:27:19.880Z,21.43
2018-06-05T01:29:49.679Z,21.44
2018-06-05T01:32:19.515Z,21.44
2018-06-05T01:34:49.356Z,21.43
2018-06-05T01:37:19.173Z,21.39
2018-06-05T01:39:48.997Z,21.41
2018-06-05T01:42:18.844Z,21.30
2018-06-05T01:44:48.643Z,21.22
2018-06-05T01:47:18.492Z,21.18
2018-06-05T01:49:48.310Z,20.84
2018-06-05T01:52:18.136Z,21.21
2018-06-05T01:54:47.904Z,21.13
2018-06-05T01:57:17.753Z,21.23
2018-06-05T01:59:47.616Z,21.15
2018-06-05T02:02:17.455Z,21.07
2018-06-05T02:04:47.273Z,21.15
2018-06-05T02:07:17.065Z,21.04
2018-06-05T02:09:46.898Z,21.16
2018-06-05T02:12:16.727Z,21.23
2018-06-05T02:14:46.549Z,21.13
2018-06-05T02:17:16.444Z,21.18
2018-06-05T02:19:46.340Z,21.19
2018-06-05T02:22:16.124Z,21.18
2018-06-05T02:24:45.979Z,21.26
2018-06-05T02:27:15.808Z,21.25
2018-06-05T02:29:45.652Z,21.32
2018-06-05T02:32:15.433Z,21.32
2018-06-05T02:34:45.304Z,21.24
2018-06-05T02:37:15.268Z,21.24
2018-06-05T02:39:45.044Z,21.23
2018-06-05T02:42:14.918Z,21.27
2018-06-05T02:44:44.807Z,21.26
2018-06-05T02:47:14.632Z,21.17
2018-06-05T02:49:44.527Z,21.11
2018-06-05T02:52:14.340Z,20.97
2018-06-05T02:54:44.196Z,20.92
2018-06-05T02:57:13.996Z,20.78
2018-06-05T02:59:43.844Z,20.75
2018-06-05T03:02:13.687Z,20.79
2018-06-05T03:04:43.505Z,20.66
2018-06-05T03:07:13.367Z,20.56
2018-06-05T03:09:43.156Z,20.53
2018-06-05T03:12:13.041Z,20.57
2018-06-05T03:14:42.836Z,20.61
2018-06-05T03:17:12.676Z,20.58
2018-06-05T03:19:42.517Z,20.57
2018-06-05T03:22:12.320Z,20.62
2018-06-05T03:24:42.192Z,20.66
2018-06-05T03:27:12.064Z,20.79
2018-06-05T03:29:41.843Z,20.87
2018-06-05T03:32:11.668Z,20.85
2018-06-05T03:34:41.470Z,20.88
2018-06-05T03:37:11.309Z,20.94
2018-06-05T03:39:41.100Z,20.99
2018-06-05T03:42:10.917Z,21.05
2018-06-05T03:44:40.717Z,21.07
2018-06-05T03:47:10.545Z,20.99
2018-06-05T03:49:41.280Z,21.05
2018-06-05T03:52:11.650Z,21.27
2018-06-05T03:54:41.535Z,21.51
2018-06-05T03:57:11.340Z,21.71
2018-06-05T03:59:41.180Z,21.79
2018-06-05T04:02:11.035Z,21.88
2018-06-05T04:04:40.919Z,22.06
2018-06-05T04:07:10.764Z,22.25
2018-06-05T04:09:40.603Z,22.29
2018-06-05T04:12:10.459Z,22.58
2018-06-05T04:14:40.276Z,22.74
2018-06-05T04:17:10.158Z,23.03
2018-06-05T04:19:40.010Z,23.24
2018-06-05T04:22:09.820Z,23.44
2018-06-05T04:24:39.700Z,23.62
2018-06-05T04:27:09.634Z,23.87
2018-06-05T04:29:39.472Z,23.94
2018-06-05T04:32:09.455Z,24.15
2018-06-05T04:34:39.307Z,24.33
2018-06-05T04:37:09.215Z,24.50
2018-06-05T04:39:39.095Z,24.53
2018-06-05T04:42:08.894Z,24.74
2018-06-05T04:44:38.909Z,24.83
2018-06-05T04:47:08.731Z,25.00
2018-06-05T04:49:38.592Z,25.16
2018-06-05T04:52:08.476Z,25.42
2018-06-05T04:54:38.321Z,25.63
2018-06-05T04:57:08.147Z,25.60
2018-06-05T04:59:38.000Z,25.86
2018-06-05T05:02:07.820Z,25.98
2018-06-05T05:04:37.700Z,25.73
2018-06-05T05:07:07.508Z,25.95
2018-06-05T05:09:37.473Z,25.91
2018-06-05T05:12:07.267Z,25.93
2018-06-05T05:14:37.164Z,25.92
2018-06-05T05:17:07.060Z,25.98
2018-06-05T05:19:37.011Z,26.26
2018-06-05T05:22:06.974Z,26.35
2018-06-05T05:24:36.932Z,26.54
2018-06-05T05:27:06.949Z,26.58
2018-06-05T05:29:36.875Z,26.72
2018-06-05T05:34:39.498Z,27.42
2018-06-05T05:37:09.456Z,27.56
2018-06-05T05:39:39.417Z,27.57
2018-06-05T05:42:09.336Z,27.72
2018-06-05T05:44:39.281Z,27.95
2018-06-05T05:47:09.292Z,27.99
2018-06-05T05:49:39.242Z,28.09
2018-06-05T05:52:10.083Z,28.26
2018-06-05T05:54:40.036Z,28.30
2018-06-05T05:57:09.901Z,28.43
2018-06-05T05:59:39.873Z,28.29
2018-06-05T06:02:09.779Z,28.31
2018-06-05T06:04:39.827Z,28.51
2018-06-05T06:07:09.863Z,28.69
2018-06-05T06:09:40.244Z,27.95
2018-06-05T06:12:10.297Z,28.51
2018-06-05T06:14:40.347Z,28.62
2018-06-05T06:17:10.268Z,28.78
2018-06-05T06:19:40.201Z,28.83
2018-06-05T06:22:10.189Z,28.90
2018-06-05T06:24:40.137Z,29.06
2018-06-05T06:27:10.278Z,29.22
2018-06-05T06:29:40.207Z,29.36
2018-06-05T06:32:10.088Z,29.35
2018-06-05T06:34:39.936Z,29.48
2018-06-05T06:37:09.963Z,29.50
2018-06-05T06:39:39.891Z,29.39
2018-06-05T06:42:09.756Z,29.46
2018-06-05T06:44:39.608Z,29.54
2018-06-05T06:47:09.579Z,29.70
2018-06-05T06:49:39.564Z,29.65
2018-06-05T06:52:09.507Z,29.60
2018-06-05T06:54:39.426Z,29.33
2018-06-05T06:57:09.292Z,29.68
2018-06-05T06:59:39.255Z,29.75
2018-06-05T07:02:09.148Z,29.87
2018-06-05T07:04:38.981Z,30.05
2018-06-05T07:07:08.899Z,30.15
2018-06-05T07:09:38.845Z,30.06
2018-06-05T07:12:08.756Z,30.11
2018-06-05T07:14:38.609Z,30.40
2018-06-05T07:17:08.554Z,30.40
2018-06-05T07:19:38.491Z,30.17
2018-06-05T07:22:08.386Z,30.27
2018-06-05T07:24:38.276Z,30.37
2018-06-05T07:27:08.215Z,30.44
2018-06-05T07:29:38.299Z,30.45
2018-06-05T07:32:08.214Z,30.59
2018-06-05T07:34:38.122Z,30.67
2018-06-05T07:37:07.988Z,30.72
2018-06-05T07:39:37.847Z,30.33
2018-06-05T07:42:07.808Z,30.35
2018-06-05T07:44:37.619Z,30.35
2018-06-05T07:47:07.529Z,30.51
2018-06-05T07:49:37.528Z,30.69
2018-06-05T07:52:07.489Z,30.71
2018-06-05T07:54:37.511Z,30.85
2018-06-05T07:57:07.404Z,30.77
2018-06-05T07:59:37.372Z,30.84
2018-06-05T08:02:07.281Z,30.63
2018-06-05T08:04:37.213Z,30.77
2018-06-05T08:07:07.093Z,30.84
2018-06-05T08:09:36.961Z,30.87
2018-06-05T08:12:06.834Z,30.75
2018-06-05T08:14:36.679Z,30.86
2018-06-05T08:17:06.701Z,30.93
2018-06-05T08:19:36.540Z,31.07
2018-06-05T08:22:06.518Z,31.09
2018-06-05T08:24:36.428Z,31.09
2018-06-05T08:27:06.307Z,31.15
2018-06-05T08:29:36.189Z,31.01
2018-06-05T08:32:10.425Z,30.90
2018-06-05T08:34:40.410Z,31.06
2018-06-05T08:37:10.277Z,31.35
2018-06-05T08:39:40.244Z,31.49
2018-06-05T08:42:10.040Z,31.56
2018-06-05T08:44:39.911Z,31.43
2018-06-05T08:47:09.809Z,31.46
2018-06-05T08:49:39.714Z,31.69
2018-06-05T08:52:09.636Z,31.81
2018-06-05T08:54:39.438Z,31.59
2018-06-05T08:57:09.431Z,31.86
2018-06-05T08:59:40.342Z,31.76
2018-06-05T09:02:11.472Z,31.66
2018-06-05T09:04:41.705Z,31.51
2018-06-05T09:07:11.667Z,31.75
2018-06-05T09:09:41.538Z,31.77
2018-06-05T09:12:11.468Z,31.63
2018-06-05T09:14:41.286Z,31.47
2018-06-05T09:17:11.492Z,31.58
2018-06-05T09:19:41.349Z,31.32
2018-06-05T09:22:11.874Z,31.37
2018-06-05T09:24:41.927Z,31.33
2018-06-05T09:27:13.745Z,31.33
2018-06-05T09:29:43.624Z,31.51
2018-06-05T09:32:13.492Z,31.44
2018-06-05T09:34:43.431Z,31.50
2018-06-05T09:37:20.069Z,31.39
2018-06-05T09:39:54.201Z,31.42
2018-06-05T09:42:25.095Z,31.58
2018-06-05T09:44:55.565Z,31.88
2018-06-05T09:47:29.056Z,31.94
2018-06-05T09:50:03.342Z,32.08
2018-06-05T09:52:36.200Z,32.16
2018-06-05T09:55:10.758Z,32.16
2018-06-05T09:57:44.793Z,32.16
2018-06-05T10:00:16.780Z,31.88
2018-06-05T10:02:47.240Z,32.01
2018-06-05T10:05:17.729Z,32.07
2018-06-05T10:07:48.130Z,32.30
2018-06-05T10:10:17.975Z,32.28
2018-06-05T10:12:47.805Z,32.16
2018-06-05T10:15:17.632Z,32.11
2018-06-05T10:17:47.563Z,31.63
2018-06-05T10:20:17.462Z,32.32
2018-06-05T10:22:47.272Z,32.07
2018-06-05T10:25:17.104Z,32.11
2018-06-05T10:27:46.910Z,32.05
2018-06-05T10:30:16.821Z,32.10
2018-06-05T10:32:46.767Z,32.23
2018-06-05T10:35:16.641Z,32.19
2018-06-05T10:37:46.472Z,32.31
2018-06-05T10:40:16.558Z,32.30
2018-06-05T10:42:46.456Z,32.32
2018-06-05T10:45:16.286Z,31.80
2018-06-05T10:47:46.164Z,32.28
2018-06-05T10:50:16.120Z,32.44
2018-06-05T10:52:46.072Z,32.56
2018-06-05T10:55:15.985Z,32.60
2018-06-05T10:57:45.828Z,32.69
2018-06-05T11:00:15.902Z,32.53
2018-06-05T11:02:45.842Z,32.54
2018-06-05T11:05:15.669Z,32.44
2018-06-05T11:07:45.488Z,32.46
2018-06-05T11:10:15.428Z,32.49
2018-06-05T11:12:45.347Z,32.43
2018-06-05T11:15:17.026Z,32.56
2018-06-05T11:17:46.917Z,32.86
2018-06-05T11:20:16.913Z,32.92
2018-06-05T11:22:46.854Z,32.61
2018-06-05T11:25:16.788Z,32.66
2018-06-05T11:27:46.677Z,32.61
2018-06-05T11:30:16.601Z,32.72
2018-06-05T11:32:46.567Z,32.79
2018-06-05T11:35:16.465Z,32.72
2018-06-05T11:37:46.512Z,32.76
2018-06-05T11:40:16.318Z,32.92
2018-06-05T11:42:46.187Z,33.01
2018-06-05T11:45:16.148Z,33.22
2018-06-05T11:47:46.004Z,33.36
2018-06-05T11:50:15.944Z,33.43
2018-06-05T11:52:45.881Z,33.11
2018-06-05T11:55:15.802Z,33.10
2018-06-05T11:57:45.726Z,33.29
2018-06-05T12:00:15.884Z,33.13
2018-06-05T12:02:45.825Z,33.21
2018-06-05T12:05:15.738Z,33.22
2018-06-05T12:07:45.689Z,33.39
2018-06-05T12:10:15.607Z,33.41
2018-06-05T12:12:45.525Z,33.35
2018-06-05T12:15:15.353Z,33.47
2018-06-05T12:17:45.239Z,33.38
2018-06-05T12:20:15.068Z,33.43
2018-06-05T12:22:44.924Z,33.48
2018-06-05T12:25:14.741Z,33.54
2018-06-05T12:27:44.625Z,33.54
2018-06-05T12:30:14.452Z,33.68
2018-06-05T12:32:44.348Z,33.54
2018-06-05T12:35:14.157Z,33.47
2018-06-05T12:37:44.040Z,33.64
2018-06-05T12:40:13.925Z,33.74
2018-06-05T12:42:43.955Z,32.75
2018-06-05T12:45:13.792Z,33.56
2018-06-05T12:47:43.740Z,33.75
2018-06-05T12:50:13.590Z,33.69
2018-06-05T12:52:43.392Z,33.58
2018-06-05T12:55:13.343Z,33.54
2018-06-05T12:57:43.317Z,33.63
2018-06-05T13:00:13.144Z,33.57
2018-06-05T13:02:43.005Z,33.66
2018-06-05T13:05:12.860Z,33.49
2018-06-05T13:07:42.713Z,33.56
2018-06-05T13:10:12.596Z,33.48
2018-06-05T13:12:42.532Z,33.51
2018-06-05T13:15:12.520Z,33.57
2018-06-05T13:17:42.496Z,33.70
2018-06-05T13:20:12.359Z,33.64
2018-06-05T13:22:42.242Z,33.60
2018-06-05T13:25:12.142Z,33.60
2018-06-05T13:27:42.000Z,33.62
2018-06-05T13:30:11.880Z,33.52
2018-06-05T13:32:44.085Z,33.82
2018-06-05T13:35:14.237Z,33.81
2018-06-05T13:37:44.181Z,33.78
2018-06-05T13:40:14.133Z,33.78
2018-06-05T13:42:43.966Z,33.66
2018-06-05T13:45:13.860Z,33.81
2018-06-05T13:47:43.806Z,33.85
2018-06-05T13:50:14.987Z,33.86
2018-06-05T13:52:44.979Z,33.53
2018-06-05T13:55:14.884Z,33.60
2018-06-05T13:57:44.755Z,33.57
2018-06-05T14:00:15.041Z,33.48
2018-06-05T14:02:45.764Z,33.29
2018-06-05T14:05:15.685Z,33.21
2018-06-05T14:07:45.616Z,33.06
2018-06-05T14:10:15.572Z,32.88
2018-06-05T14:12:45.377Z,32.75
2018-06-05T14:15:15.342Z,32.64
2018-06-05T14:17:45.305Z,32.46
2018-06-05T14:20:15.205Z,32.25
2018-06-05T14:22:45.078Z,32.19
2018-06-05T14:25:15.020Z,32.02
2018-06-05T14:27:45.029Z,32.09
2018-06-05T14:30:14.991Z,31.91
2018-06-05T14:32:44.884Z,31.85
2018-06-05T14:35:14.701Z,31.90
2018-06-05T14:37:44.536Z,31.48
2018-06-05T14:40:14.428Z,30.93
2018-06-05T14:42:44.340Z,30.79
2018-06-05T14:45:14.298Z,30.62
2018-06-05T14:47:44.024Z,30.04
2018-06-05T14:50:13.876Z,30.04
2018-06-05T14:52:43.692Z,29.65
2018-06-05T14:55:13.536Z,29.76
2018-06-05T14:57:43.385Z,29.77
2018-06-05T15:00:13.172Z,29.58
2018-06-05T15:02:43.013Z,29.79
2018-06-05T15:05:12.795Z,29.95
2018-06-05T15:07:42.676Z,29.99
2018-06-05T15:10:12.476Z,29.88
2018-06-05T15:12:42.254Z,29.93
2018-06-05T15:15:12.100Z,30.00
2018-06-05T15:17:41.889Z,29.94
2018-06-05T15:20:11.780Z,29.95
2018-06-05T15:22:41.576Z,29.95
2018-06-05T15:25:11.428Z,29.98
2018-06-05T15:27:41.266Z,30.03
2018-06-05T15:30:11.205Z,30.09
2018-06-05T15:32:41.034Z,30.13
2018-06-05T15:35:10.867Z,30.14
2018-06-05T15:37:40.728Z,30.25
2018-06-05T15:40:11.305Z,30.23
2018-06-05T15:42:42.289Z,30.22
2018-06-05T15:45:12.268Z,30.18
2018-06-05T15:47:42.806Z,30.15
2018-06-05T15:50:13.488Z,30.08
2018-06-05T15:52:43.356Z,29.89
2018-06-05T15:55:13.784Z,29.95
2018-06-05T15:57:43.632Z,29.86
2018-06-05T16:00:13.489Z,29.70
2018-06-05T16:02:43.280Z,29.76
2018-06-05T16:05:13.113Z,29.68
2018-06-05T16:07:42.973Z,29.65
2018-06-05T16:10:12.772Z,29.27
2018-06-05T16:12:42.609Z,29.26
2018-06-05T16:15:12.385Z,29.37
2018-06-05T16:17:42.197Z,29.35
2018-06-05T16:20:12.015Z,29.36
2018-06-05T16:22:41.933Z,29.33
2018-06-05T16:25:11.764Z,29.37
2018-06-05T16:27:41.592Z,29.26
2018-06-05T16:30:11.428Z,29.09
2018-06-05T16:32:41.231Z,29.03
2018-06-05T16:35:11.082Z,29.02
2018-06-05T16:37:40.875Z,28.34
2018-06-05T16:40:10.707Z,28.98
2018-06-05T16:42:40.626Z,28.93
2018-06-05T16:45:10.456Z,28.89
2018-06-05T16:47:40.350Z,28.89
2018-06-05T16:50:10.208Z,28.56
2018-06-05T16:52:40.032Z,28.32
2018-06-05T16:55:09.868Z,28.33
2018-06-05T16:57:39.800Z,28.31
2018-06-05T17:00:09.668Z,28.28
2018-06-05T17:02:39.548Z,28.18
2018-06-05T17:05:09.356Z,28.08
2018-06-05T17:07:39.225Z,27.88
2018-06-05T17:10:09.024Z,27.85
2018-06-05T17:12:38.868Z,27.75
2018-06-05T17:15:08.717Z,27.74
2018-06-05T17:17:38.517Z,27.77
2018-06-05T17:20:08.356Z,27.71
2018-06-05T17:22:38.147Z,27.72
2018-06-05T17:25:07.996Z,27.67
2018-06-05T17:27:37.840Z,27.62
2018-06-05T17:30:07.647Z,27.60
2018-06-05T17:32:37.488Z,27.55
2018-06-05T17:35:07.312Z,27.51
2018-06-05T17:37:37.176Z,27.47
2018-06-05T17:40:07.043Z,27.42
2018-06-05T17:42:36.830Z,27.35
2018-06-05T17:45:06.669Z,27.26
2018-06-05T17:47:36.551Z,27.14
2018-06-05T17:50:06.377Z,27.09
2018-06-05T17:52:36.236Z,27.04
2018-06-05T17:55:06.415Z,26.97
2018-06-05T17:57:36.388Z,26.85
2018-06-05T18:00:06.248Z,26.72
2018-06-05T18:02:36.052Z,26.59
2018-06-05T18:05:05.920Z,26.51
2018-06-05T18:07:35.737Z,26.41
2018-06-05T18:10:05.576Z,26.43
2018-06-05T18:12:35.489Z,26.39
2018-06-05T18:15:05.453Z,26.32
2018-06-05T18:17:35.252Z,26.07
2018-06-05T18:20:05.176Z,26.09
2018-06-05T18:22:35.040Z,26.09
2018-06-05T18:25:04.856Z,26.10
2018-06-05T18:27:34.736Z,25.97
2018-06-05T18:30:04.761Z,25.93
2018-06-05T18:32:34.592Z,25.91
2018-06-05T18:35:04.460Z,25.87
2018-06-05T18:37:34.260Z,25.84
2018-06-05T18:40:04.204Z,25.85
2018-06-05T18:42:34.010Z,25.83
2018-06-05T18:45:03.865Z,25.80
2018-06-05T18:47:33.679Z,25.81
2018-06-05T18:50:03.559Z,25.81
2018-06-05T18:52:33.434Z,25.79
2018-06-05T18:55:03.313Z,25.74
2018-06-05T18:57:33.143Z,25.69
2018-06-05T19:00:02.997Z,25.66
2018-06-05T19:02:32.784Z,25.67
2018-06-05T19:05:02.608Z,25.59
2018-06-05T19:07:32.402Z,25.54
2018-06-05T19:10:02.232Z,24.93
2018-06-05T19:12:32.025Z,25.47
2018-06-05T19:15:01.862Z,25.47
2018-06-05T19:17:31.721Z,25.42
2018-06-05T19:20:01.547Z,25.42
2018-06-05T19:22:31.371Z,25.35
2018-06-05T19:25:01.168Z,25.38
2018-06-05T19:27:31.069Z,25.29
2018-06-05T19:30:00.944Z,25.23
2018-06-05T19:32:30.792Z,25.18
2018-06-05T19:35:00.629Z,25.12
2018-06-05T19:37:30.468Z,25.11
2018-06-05T19:40:00.307Z,25.06
2018-06-05T19:42:30.205Z,25.06
2018-06-05T19:45:00.086Z,25.00
2018-06-05T19:47:29.897Z,25.00
2018-06-05T19:49:59.750Z,24.96
2018-06-05T19:52:29.589Z,24.92
2018-06-05T19:54:59.388Z,24.89
2018-06-05T19:57:29.248Z,24.89
2018-06-05T19:59:59.079Z,24.90
2018-06-05T20:02:28.907Z,24.86
2018-06-05T20:04:58.748Z,24.93
2018-06-05T20:07:28.548Z,24.90
2018-06-05T20:09:58.392Z,24.82
2018-06-05T20:12:28.243Z,24.62
2018-06-05T20:14:58.084Z,24.60
2018-06-05T20:17:27.937Z,24.54
2018-06-05T20:19:57.797Z,23.83
2018-06-05T20:22:27.618Z,24.40
2018-06-05T20:24:57.496Z,24.37
2018-06-05T20:27:27.304Z,24.39
2018-06-05T20:29:57.164Z,24.40
2018-06-05T20:32:27.036Z,24.41
2018-06-05T20:34:56.829Z,24.37
2018-06-05T20:37:26.677Z,24.36
2018-06-05T20:39:56.469Z,24.29
2018-06-05T20:42:26.336Z,24.28
2018-06-05T20:44:56.132Z,24.27
2018-06-05T20:47:25.975Z,24.29
2018-06-05T20:49:55.821Z,24.23
2018-06-05T20:52:25.838Z,24.24
2018-06-05T20:54:55.636Z,24.25
2018-06-05T20:57:25.470Z,24.22
2018-06-05T20:59:55.307Z,24.19
2018-06-05T21:02:25.104Z,24.17
2018-06-05T21:04:54.952Z,24.16
2018-06-05T21:07:24.757Z,24.05
2018-06-05T21:09:54.599Z,23.99
2018-06-05T21:12:24.412Z,23.93
2018-06-05T21:14:54.257Z,24.00
2018-06-05T21:17:24.068Z,24.03
2018-06-05T21:19:53.909Z,24.01
2018-06-05T21:22:23.792Z,24.02
2018-06-05T21:24:53.681Z,23.89
2018-06-05T21:27:23.494Z,23.84
2018-06-05T21:29:53.331Z,23.84
2018-06-05T21:32:23.111Z,23.78
2018-06-05T21:34:52.847Z,23.75
2018-06-05T21:37:22.652Z,23.70
2018-06-05T21:39:52.469Z,23.64
2018-06-05T21:42:22.198Z,23.67
2018-06-05T21:44:51.989Z,23.57
2018-06-05T21:47:21.735Z,23.47
2018-06-05T21:49:51.543Z,23.53
2018-06-05T21:52:21.279Z,23.51
2018-06-05T21:54:51.064Z,23.50
2018-06-05T21:57:20.795Z,23.45
2018-06-05T21:59:50.570Z,23.49
2018-06-05T22:02:20.328Z,23.45
2018-06-05T22:04:50.170Z,23.48
2018-06-05T22:07:19.939Z,23.47
2018-06-05T22:09:49.719Z,23.46
2018-06-05T22:12:19.500Z,23.47
2018-06-05T22:14:49.335Z,23.39
2018-06-05T22:17:19.095Z,23.28
2018-06-05T22:19:48.920Z,23.24
2018-06-05T22:22:18.726Z,23.26
2018-06-05T22:24:48.499Z,23.22
2018-06-05T22:27:18.255Z,23.21
2018-06-05T22:29:48.047Z,23.07
2018-06-05T22:32:17.780Z,23.04
2018-06-05T22:34:47.571Z,22.94
2018-06-05T22:37:17.361Z,22.78
2018-06-05T22:39:47.110Z,22.70
2018-06-05T22:42:16.887Z,22.71
2018-06-05T22:44:46.616Z,22.55
2018-06-05T22:47:16.418Z,22.55
2018-06-05T22:49:46.166Z,22.57
2018-06-05T22:52:15.991Z,22.56
2018-06-05T22:54:45.710Z,22.62
2018-06-05T22:57:15.499Z,22.50
2018-06-05T22:59:45.244Z,22.58
2018-06-05T23:02:15.059Z,22.63
2018-06-05T23:04:44.835Z,22.64
2018-06-05T23:07:14.615Z,22.69
2018-06-05T23:09:44.471Z,22.64
2018-06-05T23:12:14.224Z,22.75
2018-06-05T23:14:44.002Z,22.72
2018-06-05T23:17:13.795Z,22.78
2018-06-05T23:19:43.539Z,22.85
2018-06-05T23:22:13.316Z,22.88
2018-06-05T23:24:43.111Z,22.87
2018-06-05T23:27:12.926Z,22.87
2018-06-05T23:29:42.791Z,22.88
2018-06-05T23:32:12.615Z,22.90
2018-06-05T23:34:42.429Z,22.89
2018-06-05T23:37:12.204Z,22.84
2018-06-05T23:39:42.059Z,22.71
2018-06-05T23:42:11.876Z,22.67
2018-06-05T23:44:41.758Z,22.59
2018-06-05T23:47:11.607Z,22.50
2018-06-05T23:49:41.404Z,22.44
2018-06-05T23:52:11.249Z,22.24
2018-06-05T23:54:41.108Z,22.29
2018-06-05T23:57:10.925Z,22.26
2018-06-05T23:59:40.815Z,22.24
